DAL1918 KMCO-MDPC
Flight info
| Callsign | DAL1918 |
|---|---|
| Flight time | N/A |
| Altitude | 35000 |
| Route | DDANY3 BORRD DCT JOLTS BR1L BENIE DCT CHASO Y306 HAGIT DCT POKEG DCT KOBET DCT BEREL BEREL1W |
| Aircraft | B739/M-SDE2E3FGHIRWXY/LB1 |
Departure
| Time | 2026-04-22 23:02 |
|---|---|
| Airport | Orlando International Airport (KMCO) |
Arrival
| Time | N/A |
|---|---|
| Airport | Punta Cana International Airport (MDPC) |
| Time | Latitude | Longitude | Altitude | Speed | Heading |
|---|---|---|---|---|---|
| 2026-04-22 22:37 | 28.43346 | -81.30062 | 100 ft | 0 kts | 13° |
| 2026-04-22 22:53 | 28.43332 | -81.30067 | 97 ft | 4 kts | 20° |
| 2026-04-22 22:53 | 28.43308 | -81.30080 | 98 ft | 4 kts | 40° |
| 2026-04-22 22:53 | 28.43294 | -81.30102 | 99 ft | 4 kts | 86° |
| 2026-04-22 22:54 | 28.43295 | -81.30116 | 98 ft | 1 kts | 111° |
| 2026-04-22 22:54 | 28.43296 | -81.30118 | 98 ft | 0 kts | 111° |
| 2026-04-22 22:57 | 28.43294 | -81.30114 | 98 ft | 0 kts | 111° |
| 2026-04-22 22:58 | 28.43294 | -81.30112 | 98 ft | 0 kts | 111° |
| 2026-04-22 22:58 | 28.43293 | -81.30109 | 100 ft | 0 kts | 111° |
| 2026-04-22 22:58 | 28.43292 | -81.30106 | 100 ft | 0 kts | 111° |
| 2026-04-22 22:58 | 28.43291 | -81.30106 | 100 ft | 0 kts | 111° |
| 2026-04-22 22:59 | 28.43291 | -81.30103 | 100 ft | 2 kts | 109° |
| 2026-04-22 22:59 | 28.43282 | -81.30057 | 99 ft | 10 kts | 94° |
| 2026-04-22 22:59 | 28.43301 | -81.29955 | 100 ft | 15 kts | 65° |
| 2026-04-22 22:59 | 28.43347 | -81.29830 | 101 ft | 17 kts | 58° |
| 2026-04-22 23:00 | 28.43442 | -81.29752 | 102 ft | 18 kts | 63° |
| 2026-04-22 23:00 | 28.43541 | -81.29687 | 102 ft | 15 kts | 66° |
| 2026-04-22 23:00 | 28.43541 | -81.29594 | 103 ft | 10 kts | 131° |
| 2026-04-22 23:00 | 28.43492 | -81.29588 | 104 ft | 0 kts | 180° |
| 2026-04-22 23:01 | 28.43404 | -81.29588 | 106 ft | 49 kts | 180° |
| 2026-04-22 23:01 | 28.42750 | -81.29581 | 101 ft | 136 kts | 180° |
| 2026-04-22 23:01 | 28.41634 | -81.29565 | 487 ft | 170 kts | 180° |
| 2026-04-22 23:02 | 28.40511 | -81.29533 | 1688 ft | 153 kts | 179° |
| 2026-04-22 23:02 | 28.39469 | -81.29498 | 2640 ft | 147 kts | 180° |
| 2026-04-22 23:02 | 28.38388 | -81.29322 | 3038 ft | 174 kts | 156° |
| 2026-04-22 23:02 | 28.37248 | -81.28584 | 3364 ft | 205 kts | 148° |
| 2026-04-22 23:03 | 28.35966 | -81.27643 | 3613 ft | 234 kts | 148° |
| 2026-04-22 23:03 | 28.34526 | -81.26550 | 3925 ft | 262 kts | 143° |
| 2026-04-22 23:03 | 28.33160 | -81.25133 | 4788 ft | 269 kts | 135° |
| 2026-04-22 23:03 | 28.31854 | -81.23598 | 5779 ft | 271 kts | 134° |
| 2026-04-22 23:04 | 28.30562 | -81.22015 | 6721 ft | 275 kts | 133° |
| 2026-04-22 23:04 | 28.29261 | -81.20400 | 7653 ft | 279 kts | 133° |
| 2026-04-22 23:04 | 28.27939 | -81.18763 | 8559 ft | 283 kts | 133° |
| 2026-04-22 23:05 | 28.25408 | -81.15671 | 10205 ft | 290 kts | 134° |
| 2026-04-22 23:05 | 28.24018 | -81.13911 | 10621 ft | 313 kts | 125° |
| 2026-04-22 23:05 | 28.23252 | -81.11534 | 10984 ft | 333 kts | 93° |
| 2026-04-22 23:05 | 28.23555 | -81.08927 | 11773 ft | 337 kts | 76° |
| 2026-04-22 23:06 | 28.24115 | -81.06334 | 12595 ft | 341 kts | 76° |
| 2026-04-22 23:06 | 28.24673 | -81.03701 | 13378 ft | 345 kts | 77° |
| 2026-04-22 23:06 | 28.25210 | -81.01029 | 14153 ft | 349 kts | 77° |
| 2026-04-22 23:06 | 28.25729 | -80.98323 | 14916 ft | 353 kts | 78° |
| 2026-04-22 23:07 | 28.26239 | -80.95582 | 15660 ft | 357 kts | 78° |